Time;durP1;ratioP1;P1;durP2;ratioP2;P2;SDS_P1;SDS_P2;PMS_P1;PMS_P2;Temp;Humidity;BMP_temperature;BMP_pressure;BME280_temperature;BME280_humidity;BME280_pressure;Samples;Min_cycle;Max_cycle;Signal;HPM_P1;HPM_P2
2022/10/29 00:02:02;;;;;;;2.58;1.90;;;;;;;19.85;60.29;102085.22;5064058;28;20040;-64
2022/10/29 00:04:27;;;;;;;2.10;1.70;;;;;;;19.84;60.34;102091.63;5063651;28;20100;-64
2022/10/29 00:06:52;;;;;;;4.70;2.10;;;;;;;19.59;60.11;102055.28;5063965;28;20035;-64
2022/10/29 00:09:18;;;;;;;2.22;1.73;;;;;;;19.84;60.31;102098.88;5063558;28;20040;-64
2022/10/29 00:11:43;;;;;;;2.75;1.80;;;;;;;19.83;59.73;102100.69;5063999;28;20780;-64
2022/10/29 00:14:08;;;;;;;4.53;1.98;;;;;;;19.82;59.92;102103.53;5062543;28;20110;-64
2022/10/29 00:16:36;;;;;;;2.08;1.73;;;;;;;19.82;60.23;102099.00;5063552;28;20032;-64
2022/10/29 00:19:03;;;;;;;2.77;2.00;;;;;;;19.82;60.17;102099.00;5063608;28;20021;-64
2022/10/29 00:21:28;;;;;;;2.97;1.90;;;;;;;19.81;59.98;102104.53;5063767;28;20021;-64
2022/10/29 00:23:53;;;;;;;2.35;2.05;;;;;;;19.80;60.26;102103.69;5063081;28;20058;-64
2022/10/29 00:26:20;;;;;;;3.00;2.13;;;;;;;19.75;59.91;102100.56;5063609;28;20028;-64
2022/10/29 00:28:46;;;;;;;2.30;1.80;;;;;;;19.79;59.95;102112.78;5063345;28;20086;-63
2022/10/29 00:31:14;;;;;;;3.95;2.28;;;;;;;19.79;60.04;102103.81;5064068;28;20033;-64
2022/10/29 00:33:39;;;;;;;2.95;2.00;;;;;;;19.80;59.95;102108.25;5063158;28;20037;-64
2022/10/29 00:36:10;;;;;;;2.78;2.05;;;;;;;19.79;60.15;102096.56;5078798;28;20652;-65
2022/10/29 00:38:36;;;;;;;2.22;1.90;;;;;;;19.79;60.19;102096.56;5063137;28;20052;-64
2022/10/29 00:41:02;;;;;;;2.60;1.90;;;;;;;19.75;60.20;102086.22;5063117;28;20603;-64
2022/10/29 00:43:28;;;;;;;3.58;2.10;;;;;;;19.77;59.87;102090.50;5063476;28;20039;-64
2022/10/29 00:46:04;;;;;;;2.25;1.75;;;;;;;19.77;60.03;102103.13;5063485;28;20049;-64
2022/10/29 00:48:35;;;;;;;3.20;2.25;;;;;;;19.77;59.90;102103.13;5063171;28;20055;-63
2022/10/29 00:51:02;;;;;;;2.33;1.63;;;;;;;19.75;59.96;102097.84;5062137;28;20048;-64
2022/10/29 00:53:33;;;;;;;3.80;2.63;;;;;;;19.75;60.22;102095.16;5061770;28;20482;-64
2022/10/29 00:55:58;;;;;;;3.70;1.90;;;;;;;19.70;59.96;102086.66;5063251;28;20108;-64
2022/10/29 00:58:24;;;;;;;3.35;1.98;;;;;;;19.72;59.79;102088.22;5063042;28;20033;-64
2022/10/29 01:00:49;;;;;;;2.50;1.75;;;;;;;19.72;60.13;102095.47;5063409;28;20128;-64
2022/10/29 01:03:14;;;;;;;2.53;1.90;;;;;;;19.70;59.83;102083.97;5063389;28;20474;-64
2022/10/29 01:05:40;;;;;;;2.72;1.88;;;;;;;19.71;60.02;102094.63;5062599;28;20036;-64
2022/10/29 01:08:06;;;;;;;3.42;2.05;;;;;;;19.72;60.11;102095.47;5063164;28;20017;-64
2022/10/29 01:11:09;;;;;;;2.92;1.98;;;;;;;19.72;59.81;102092.78;5062162;28;20029;-63
2022/10/29 01:13:59;;;;;;;2.92;1.92;;;;;;;19.72;59.92;102090.09;5062942;28;20104;-64
2022/10/29 01:16:46;;;;;;;3.20;1.50;;;;;;;19.71;59.76;102083.00;5062138;28;20025;-64
2022/10/29 01:19:47;;;;;;;2.30;1.70;;;;;;;19.70;59.62;102078.56;5062671;28;20088;-63
2022/10/29 01:22:24;;;;;;;3.70;2.05;;;;;;;19.69;59.97;102066.06;5062288;28;20154;-63
2022/10/29 01:25:04;;;;;;;2.33;1.90;;;;;;;19.68;59.78;102067.09;5061660;28;20056;-63
2022/10/29 01:28:07;;;;;;;3.20;2.05;;;;;;;19.67;59.92;102066.22;5062829;28;20028;-63
2022/10/29 01:30:51;;;;;;;1.73;1.42;;;;;;;19.66;59.74;102047.47;5043117;28;20398;-63
2022/10/29 01:33:24;;;;;;;1.80;1.55;;;;;;;19.66;59.71;102056.41;5047034;28;20029;-62
2022/10/29 01:36:01;;;;;;;2.45;1.40;;;;;;;19.65;59.86;102052.03;5061105;28;20021;-63
2022/10/29 01:38:33;;;;;;;2.33;1.60;;;;;;;19.65;59.66;102052.03;5063214;28;20024;-64
2022/10/29 01:41:14;;;;;;;4.13;2.03;;;;;;;19.64;60.11;102050.31;5062604;28;20036;-63
2022/10/29 01:44:12;;;;;;;3.40;1.60;;;;;;;19.64;59.63;102061.13;5061688;28;20032;-64
2022/10/29 01:46:45;;;;;;;3.53;1.95;;;;;;;19.64;59.84;102065.66;5034255;28;20044;-65
2022/10/29 01:49:16;;;;;;;2.08;1.50;;;;;;;19.63;59.91;102051.34;5044003;28;20064;-64
2022/10/29 01:51:42;;;;;;;2.55;1.67;;;;;;;19.64;59.86;102054.88;5064407;28;20112;-64
2022/10/29 01:54:09;;;;;;;2.03;1.48;;;;;;;19.63;59.47;102047.78;5065202;28;20409;-65
2022/10/29 01:56:35;;;;;;;4.25;1.60;;;;;;;19.62;59.76;102038.81;5066219;28;20056;-64
2022/10/29 01:59:02;;;;;;;2.67;1.70;;;;;;;19.61;59.83;102029.03;5066295;28;20033;-65
2022/10/29 02:01:33;;;;;;;2.47;1.73;;;;;;;19.61;59.51;102031.72;5065110;28;20052;-64
2022/10/29 02:04:09;;;;;;;4.10;1.83;;;;;;;19.60;59.56;102030.00;5065955;28;20044;-64
2022/10/29 02:07:01;;;;;;;2.85;2.00;;;;;;;19.61;59.69;102022.78;5065200;28;20052;-64
2022/10/29 02:09:45;;;;;;;2.55;1.70;;;;;;;19.46;59.50;101996.25;5064848;28;20029;-64
2022/10/29 02:12:27;;;;;;;2.28;1.80;;;;;;;19.59;59.65;102013.97;5065072;28;20029;-65
2022/10/29 02:14:57;;;;;;;1.98;1.70;;;;;;;19.59;59.91;102013.97;5053893;28;20397;-64
2022/10/29 02:17:23;;;;;;;2.25;1.77;;;;;;;19.59;59.75;102016.66;5065346;28;20618;-63
2022/10/29 02:19:48;;;;;;;2.75;1.42;;;;;;;19.58;59.88;102020.34;5064269;28;20048;-63
2022/10/29 02:22:13;;;;;;;2.58;1.80;;;;;;;19.57;59.47;102021.34;5066238;28;20033;-63
2022/10/29 02:24:39;;;;;;;2.28;1.80;;;;;;;19.57;59.80;102015.94;5065753;28;20037;-63
2022/10/29 02:27:04;;;;;;;4.05;2.00;;;;;;;19.57;59.36;102011.41;5065781;28;20454;-62
2022/10/29 02:29:29;;;;;;;3.67;1.55;;;;;;;19.57;59.64;102015.94;5065765;28;20025;-62
2022/10/29 02:31:54;;;;;;;3.35;1.98;;;;;;;19.56;59.53;102012.41;5066145;28;20037;-63
2022/10/29 02:34:20;;;;;;;2.58;1.50;;;;;;;19.56;59.32;102014.25;5065039;28;20049;-63
2022/10/29 02:36:45;;;;;;;2.92;1.73;;;;;;;19.56;59.58;102019.66;5065823;28;20089;-63
2022/10/29 02:39:10;;;;;;;2.35;1.52;;;;;;;19.52;59.66;102027.19;5065606;28;20031;-63
2022/10/29 02:41:35;;;;;;;2.42;1.40;;;;;;;19.54;59.60;102033.28;5065699;28;20573;-63
2022/10/29 02:44:01;;;;;;;2.30;1.60;;;;;;;19.54;59.63;102033.28;5065610;28;20057;-63
2022/10/29 02:46:26;;;;;;;2.13;1.48;;;;;;;19.51;59.62;102024.63;5045714;28;20037;-63
2022/10/29 02:48:51;;;;;;;4.13;2.13;;;;;;;19.53;59.35;102020.78;5049140;28;20064;-62
2022/10/29 02:51:17;;;;;;;2.92;1.55;;;;;;;19.53;59.56;102011.84;5065336;28;20041;-63
2022/10/29 02:53:42;;;;;;;3.08;1.70;;;;;;;19.49;59.63;102003.19;5065373;28;20112;-63
2022/10/29 02:56:08;;;;;;;2.65;1.80;;;;;;;19.44;59.37;101990.13;5065389;28;20032;-63
2022/10/29 02:58:33;;;;;;;2.67;1.73;;;;;;;19.45;59.44;101991.88;5063905;28;20032;-62
2022/10/29 03:00:59;;;;;;;4.05;2.20;;;;;;;19.52;59.70;101988.56;5064929;28;20045;-63
2022/10/29 03:03:24;;;;;;;2.15;1.75;;;;;;;19.51;59.37;102003.06;5065304;28;20040;-62
2022/10/29 03:05:50;;;;;;;2.30;1.40;;;;;;;19.51;59.17;102005.75;5064395;28;20029;-63
2022/10/29 03:08:16;;;;;;;2.08;1.55;;;;;;;19.49;59.43;102008.56;5065208;28;20036;-63
2022/10/29 03:10:41;;;;;;;1.63;1.45;;;;;;;19.49;59.71;102004.03;5064841;28;20044;-64
2022/10/29 03:13:06;;;;;;;2.65;1.70;;;;;;;19.46;59.25;102000.81;5064814;28;20112;-64
2022/10/29 03:15:32;;;;;;;2.53;1.92;;;;;;;19.48;59.62;101990.69;5080648;28;20484;-64
2022/10/29 03:17:57;;;;;;;3.60;1.55;;;;;;;19.48;59.39;101985.31;5080510;28;20079;-64
2022/10/29 03:20:22;;;;;;;1.92;1.60;;;;;;;19.45;59.50;101972.97;5064487;28;20024;-65
2022/10/29 03:22:47;;;;;;;1.95;1.42;;;;;;;19.39;59.86;101959.22;5065089;28;20025;-64
2022/10/29 03:25:13;;;;;;;3.03;1.80;;;;;;;19.47;59.52;101975.53;5064738;28;20649;-64
2022/10/29 03:27:42;;;;;;;2.50;1.45;;;;;;;19.45;59.39;101986.47;5064515;28;20132;-64
2022/10/29 03:30:12;;;;;;;4.40;1.88;;;;;;;19.46;59.60;101981.91;5064622;28;20052;-64
2022/10/29 03:32:41;;;;;;;2.70;1.85;;;;;;;19.44;59.19;101992.84;5057641;28;20033;-63
2022/10/29 03:35:07;;;;;;;1.90;1.70;;;;;;;19.44;59.20;101990.13;5059774;28;20067;-64
2022/10/29 03:37:32;;;;;;;1.85;1.40;;;;;;;19.41;59.57;101985.06;5065082;28;20052;-64
2022/10/29 03:39:58;;;;;;;2.72;2.03;;;;;;;19.33;59.10;101970.59;5079685;28;20099;-64
2022/10/29 03:42:23;;;;;;;2.30;1.60;;;;;;;19.44;59.48;101989.28;5064713;28;20123;-64
2022/10/29 03:44:48;;;;;;;4.85;1.83;;;;;;;19.33;59.44;101966.06;5064074;28;20025;-64
2022/10/29 03:47:13;;;;;;;1.83;1.50;;;;;;;19.35;59.33;101966.75;5064568;28;20657;-64
2022/10/29 03:49:39;;;;;;;2.83;1.75;;;;;;;19.41;59.21;101976.97;5063216;28;20105;-64
2022/10/29 03:52:04;;;;;;;2.63;1.70;;;;;;;19.41;59.31;101971.56;5064542;28;20032;-64
2022/10/29 03:54:29;;;;;;;2.30;1.80;;;;;;;19.37;59.21;101966.59;5064037;28;20031;-64
2022/10/29 03:56:54;;;;;;;3.08;1.60;;;;;;;19.41;59.04;101986.88;5064362;28;20025;-64
2022/10/29 03:59:20;;;;;;;1.88;1.48;;;;;;;19.41;59.45;101987.75;5063192;28;20025;-64
2022/10/29 04:01:45;;;;;;;1.80;1.35;;;;;;;19.34;59.01;101985.78;5064170;28;20055;-64
2022/10/29 04:04:10;;;;;;;2.35;1.48;;;;;;;19.38;59.05;101996.13;5062754;28;20805;-64
2022/10/29 04:06:35;;;;;;;2.35;1.70;;;;;;;19.39;59.08;101994.28;5063836;28;20021;-64
2022/10/29 04:09:01;;;;;;;2.00;1.60;;;;;;;19.39;59.25;101996.97;5063986;28;20036;-64
2022/10/29 04:11:26;;;;;;;2.17;1.63;;;;;;;19.39;59.40;102005.06;5063951;28;20032;-60
2022/10/29 04:13:52;;;;;;;1.85;1.40;;;;;;;19.38;59.44;102001.53;5064921;28;20321;-59
2022/10/29 04:16:17;;;;;;;1.48;1.30;;;;;;;19.38;59.39;102000.69;5053030;28;20048;-59
2022/10/29 04:18:42;;;;;;;4.65;1.80;;;;;;;19.38;59.74;102004.22;5059413;28;20063;-59
2022/10/29 04:21:08;;;;;;;2.20;1.30;;;;;;;19.36;59.38;101997.25;5046373;28;20112;-59
2022/10/29 04:23:33;;;;;;;2.95;1.60;;;;;;;19.37;59.68;101985.47;5048295;28;20040;-60
2022/10/29 04:25:58;;;;;;;1.70;1.30;;;;;;;19.38;59.55;101996.13;5053392;28;20028;-60
2022/10/29 04:28:24;;;;;;;1.63;1.25;;;;;;;19.39;59.43;101992.44;5056529;28;20084;-58
2022/10/29 04:30:50;;;;;;;2.08;1.48;;;;;;;19.39;59.37;101989.72;5061216;28;20033;-59
2022/10/29 04:33:15;;;;;;;3.55;1.25;;;;;;;19.39;59.44;101987.03;5062155;28;20040;-58
2022/10/29 04:35:40;;;;;;;2.90;1.60;;;;;;;19.39;59.66;101978.94;5062478;28;20039;-59
2022/10/29 04:38:10;;;;;;;2.63;1.50;;;;;;;19.32;59.69;101969.72;5056103;28;20036;-60
2022/10/29 04:40:35;;;;;;;1.58;1.40;;;;;;;19.41;59.46;101978.78;5056952;28;20018;-59
2022/10/29 04:43:01;;;;;;;1.80;1.40;;;;;;;19.14;59.63;101939.13;5052161;28;20054;-58
2022/10/29 04:45:26;;;;;;;1.95;1.25;;;;;;;19.41;59.51;101981.47;5055261;28;20387;-59
2022/10/29 04:47:59;;;;;;;1.98;1.30;;;;;;;19.42;59.82;101980.50;5048759;28;20023;-63
2022/10/29 04:50:24;;;;;;;2.80;1.67;;;;;;;19.41;59.83;101979.66;5060924;28;20040;-63
2022/10/29 04:52:50;;;;;;;1.58;1.40;;;;;;;19.43;59.60;101976.81;5063378;28;20439;-63
2022/10/29 04:55:15;;;;;;;2.00;1.40;;;;;;;19.41;59.32;101974.28;5062783;28;20025;-63
2022/10/29 04:57:40;;;;;;;2.33;1.30;;;;;;;19.42;59.67;101978.66;5062773;28;20026;-63
2022/10/29 05:00:06;;;;;;;1.90;1.35;;;;;;;19.42;59.22;101978.66;5063039;28;20072;-63
2022/10/29 05:02:31;;;;;;;1.98;1.42;;;;;;;19.28;59.26;101960.22;5062961;28;20037;-63
2022/10/29 05:04:57;;;;;;;1.98;1.55;;;;;;;19.42;59.35;101980.50;5061838;28;20466;-63
2022/10/29 05:07:22;;;;;;;1.98;1.40;;;;;;;19.42;59.36;101972.41;5060618;28;20028;-63
2022/10/29 05:09:47;;;;;;;1.88;1.33;;;;;;;19.41;59.39;101960.78;5062875;28;20036;-62
2022/10/29 05:12:12;;;;;;;2.08;1.70;;;;;;;19.42;59.50;101954.38;5062707;28;20036;-63
2022/10/29 05:14:37;;;;;;;1.63;1.45;;;;;;;19.41;59.35;101939.22;5063031;28;20080;-62
2022/10/29 05:17:03;;;;;;;1.98;1.35;;;;;;;19.30;59.40;101925.03;5047325;28;20021;-61
2022/10/29 05:19:28;;;;;;;1.73;1.40;;;;;;;19.42;59.65;101948.16;5042166;28;20509;-62
2022/10/29 05:21:53;;;;;;;2.22;1.40;;;;;;;19.41;59.52;101941.03;5043203;28;20029;-62
2022/10/29 05:24:18;;;;;;;2.90;1.40;;;;;;;19.39;59.45;101935.78;5048805;28;20025;-61
2022/10/29 05:26:44;;;;;;;1.95;1.25;;;;;;;19.33;59.42;101931.00;5057390;28;20040;-62
2022/10/29 05:29:09;;;;;;;1.63;1.42;;;;;;;19.40;59.40;101956.38;5057161;28;20039;-61
2022/10/29 05:31:34;;;;;;;2.22;1.38;;;;;;;19.41;59.81;101965.31;5070135;28;20037;-62
2022/10/29 05:33:59;;;;;;;2.05;1.30;;;;;;;19.40;59.91;101958.22;5051287;28;20053;-61
2022/10/29 05:36:25;;;;;;;2.03;1.33;;;;;;;19.40;59.43;101948.28;5046940;28;20034;-62
2022/10/29 05:38:50;;;;;;;2.88;1.52;;;;;;;19.38;59.44;101942.19;5051807;28;20107;-62
2022/10/29 05:41:15;;;;;;;3.55;1.80;;;;;;;19.41;59.70;101947.31;5066255;28;20037;-62
2022/10/29 05:43:41;;;;;;;1.52;1.42;;;;;;;19.40;59.51;101948.28;5064551;28;20024;-62
2022/10/29 05:46:06;;;;;;;3.63;1.67;;;;;;;19.40;59.49;101936.63;5066625;28;20055;-62
2022/10/29 05:48:31;;;;;;;2.03;1.50;;;;;;;19.40;59.60;101942.03;5066199;28;20025;-62
2022/10/29 05:50:57;;;;;;;1.70;1.60;;;;;;;19.30;59.72;101920.50;5065969;28;20033;-64
2022/10/29 05:53:22;;;;;;;2.33;1.85;;;;;;;19.39;59.38;101933.09;5066898;28;20033;-62
2022/10/29 05:55:47;;;;;;;1.73;1.27;;;;;;;19.39;59.52;101940.34;5065006;28;20033;-63
2022/10/29 05:58:13;;;;;;;2.45;1.70;;;;;;;19.39;59.76;101935.78;5066162;28;20048;-61
2022/10/29 06:00:41;;;;;;;1.48;1.20;;;;;;;19.37;59.45;101929.72;5066490;28;20052;-62
2022/10/29 06:03:17;;;;;;;2.03;1.30;;;;;;;19.39;59.67;101924.16;5064830;28;20037;-63
2022/10/29 06:05:43;;;;;;;1.88;1.40;;;;;;;19.31;59.65;101913.25;5064786;28;20056;-62
2022/10/29 06:08:09;;;;;;;1.63;1.20;;;;;;;19.38;59.37;101933.25;5066327;28;20148;-63
2022/10/29 06:10:35;;;;;;;1.80;1.30;;;;;;;19.33;59.55;101920.22;5066310;28;20088;-62
2022/10/29 06:13:00;;;;;;;2.08;1.50;;;;;;;19.37;59.38;101924.31;5063371;28;20067;-63
2022/10/29 06:15:25;;;;;;;4.50;1.70;;;;;;;19.22;59.76;101896.97;5046223;28;20071;-63
2022/10/29 06:17:50;;;;;;;2.78;1.23;;;;;;;19.27;59.68;101915.38;5045734;28;20022;-62
2022/10/29 06:20:19;;;;;;;4.07;1.73;;;;;;;19.29;59.70;101924.19;5046066;28;20026;-63
2022/10/29 06:22:44;;;;;;;3.25;1.52;;;;;;;19.32;59.85;101925.72;5046455;28;20029;-63
2022/10/29 06:25:09;;;;;;;1.70;1.25;;;;;;;19.22;59.78;101910.44;5046233;28;20117;-63
2022/10/29 06:27:35;;;;;;;2.67;1.77;;;;;;;19.26;59.80;101918.25;5045727;28;20022;-64
2022/10/29 06:30:01;;;;;;;2.50;1.80;;;;;;;19.28;59.80;101925.16;5046035;28;20044;-63
2022/10/29 06:32:26;;;;;;;2.28;1.75;;;;;;;18.96;59.71;101877.88;5045656;28;20360;-63
2022/10/29 06:34:51;;;;;;;2.40;1.77;;;;;;;19.23;59.70;101922.91;5045326;28;20116;-63
2022/10/29 06:37:16;;;;;;;3.13;1.80;;;;;;;19.26;59.71;101920.94;5045241;28;20029;-63
2022/10/29 06:39:42;;;;;;;3.15;2.00;;;;;;;19.26;59.90;101921.78;5050196;28;20071;-63
2022/10/29 06:42:07;;;;;;;4.95;1.80;;;;;;;19.20;59.57;101911.59;5065634;28;20040;-63
2022/10/29 06:44:32;;;;;;;3.58;1.80;;;;;;;19.25;59.54;101922.78;5064269;28;20029;-63
2022/10/29 06:46:57;;;;;;;2.75;1.85;;;;;;;19.23;59.57;101927.47;5065622;28;20032;-63
2022/10/29 06:49:23;;;;;;;2.17;1.80;;;;;;;19.17;59.54;101915.44;5064826;28;20017;-60
2022/10/29 06:51:48;;;;;;;3.42;1.88;;;;;;;19.23;59.82;101925.63;5065602;28;20112;-60
2022/10/29 06:54:13;;;;;;;3.22;1.67;;;;;;;19.23;59.57;101922.91;5065559;28;20084;-63
2022/10/29 06:56:39;;;;;;;2.78;1.92;;;;;;;19.23;59.31;101913.97;5065557;28;20036;-63
2022/10/29 06:59:04;;;;;;;2.97;2.00;;;;;;;19.22;59.67;101918.53;5063034;28;20094;-62
2022/10/29 07:01:31;;;;;;;2.45;1.70;;;;;;;19.08;59.57;101907.38;5065253;28;20049;-63
2022/10/29 07:03:58;;;;;;;3.15;2.13;;;;;;;19.23;59.74;101932.84;5064865;28;20072;-62
2022/10/29 07:06:23;;;;;;;2.78;2.00;;;;;;;19.22;59.31;101931.16;5064725;28;20112;-63
2022/10/29 07:08:48;;;;;;;2.38;1.80;;;;;;;19.22;59.54;101933.84;5064604;28;20494;-63
2022/10/29 07:11:14;;;;;;;2.20;1.85;;;;;;;19.14;59.45;101912.16;5065131;28;20024;-63
2022/10/29 07:13:39;;;;;;;3.05;1.70;;;;;;;19.22;59.42;101928.47;5064582;28;20086;-63
2022/10/29 07:16:05;;;;;;;2.58;1.80;;;;;;;19.17;59.46;101919.97;5065141;28;20063;-63
2022/10/29 07:18:31;;;;;;;2.13;1.50;;;;;;;19.23;59.32;101939.09;5064555;28;20025;-63
2022/10/29 07:20:56;;;;;;;2.75;1.55;;;;;;;19.24;59.71;101931.84;5063417;28;20068;-63
2022/10/29 07:23:22;;;;;;;1.92;1.50;;;;;;;19.23;59.59;101931.00;5064822;28;20037;-63
2022/10/29 07:25:47;;;;;;;2.83;1.88;;;;;;;19.25;59.25;101924.63;5063328;28;20020;-63
2022/10/29 07:28:19;;;;;;;2.35;1.42;;;;;;;19.26;59.55;101920.94;5063640;28;20049;-63
2022/10/29 07:30:45;;;;;;;2.08;1.40;;;;;;;19.21;59.41;101918.69;5064595;28;20037;-63
2022/10/29 07:33:10;;;;;;;2.78;1.70;;;;;;;19.15;59.55;101913.84;5064048;28;20029;-63
2022/10/29 07:35:35;;;;;;;2.30;1.50;;;;;;;19.23;59.35;101916.69;5064076;28;20036;-63
2022/10/29 07:38:02;;;;;;;2.28;1.58;;;;;;;19.27;59.21;101922.63;5064486;28;20036;-63
2022/10/29 07:40:27;;;;;;;4.45;1.60;;;;;;;19.27;59.17;101928.03;5064308;28;20029;-63
2022/10/29 07:42:53;;;;;;;2.00;1.40;;;;;;;19.28;59.23;101924.31;5062972;28;20033;-64
2022/10/29 07:45:19;;;;;;;3.42;1.70;;;;;;;19.23;59.39;101924.75;5064292;28;20037;-63
2022/10/29 07:47:44;;;;;;;1.85;1.38;;;;;;;19.28;59.09;101932.41;5062842;28;20047;-63
2022/10/29 07:50:09;;;;;;;2.00;1.45;;;;;;;19.26;59.43;101935.25;5078531;28;20028;-63
2022/10/29 07:52:35;;;;;;;1.70;1.50;;;;;;;19.28;59.25;101940.50;5064551;28;20036;-63
2022/10/29 07:55:01;;;;;;;2.47;1.73;;;;;;;19.29;59.13;101934.13;5064122;28;20029;-63
2022/10/29 07:57:27;;;;;;;2.85;1.90;;;;;;;19.28;59.27;101929.72;5064214;28;20029;-63
2022/10/29 07:59:52;;;;;;;2.25;1.80;;;;;;;19.29;59.28;101928.75;5063811;28;20033;-63
2022/10/29 08:02:17;;;;;;;2.08;1.52;;;;;;;19.29;59.33;101931.44;5064403;28;20127;-63
2022/10/29 08:04:43;;;;;;;1.80;1.30;;;;;;;19.28;59.35;101925.16;5045532;28;20119;-63
2022/10/29 08:07:08;;;;;;;3.60;2.22;;;;;;;19.29;59.28;101926.91;5051537;28;20017;-63
2022/10/29 08:09:33;;;;;;;2.95;1.50;;;;;;;19.29;59.05;101937.69;5064142;28;20052;-61
2022/10/29 08:11:58;;;;;;;1.95;1.55;;;;;;;19.29;58.95;101934.97;5064081;28;20048;-63
2022/10/29 08:14:24;;;;;;;2.35;1.70;;;;;;;19.23;59.08;101935.56;5049399;28;20097;-63
2022/10/29 08:16:52;;;;;;;1.48;1.33;;;;;;;19.30;59.02;101941.22;5044044;28;20425;-64
2022/10/29 08:19:17;;;;;;;3.45;1.85;;;;;;;19.31;59.02;101943.75;5043521;28;20029;-62
2022/10/29 08:21:42;;;;;;;2.47;1.70;;;;;;;19.32;58.82;101944.59;5044118;28;20158;-63
2022/10/29 08:24:08;;;;;;;1.40;1.30;;;;;;;19.34;58.96;101940.78;5043761;28;20037;-63
2022/10/29 08:26:34;;;;;;;3.88;1.58;;;;;;;19.35;58.87;101936.22;5043692;28;20022;-63
2022/10/29 08:28:59;;;;;;;2.13;1.70;;;;;;;19.37;58.88;101928.84;5043404;28;20032;-63
2022/10/29 08:31:24;;;;;;;1.52;1.38;;;;;;;19.30;59.21;101909.72;5043644;28;20048;-62
2022/10/29 08:33:49;;;;;;;2.58;1.60;;;;;;;19.44;58.97;101911.06;5063332;28;20520;-63
2022/10/29 08:36:15;;;;;;;4.30;1.50;;;;;;;19.47;58.47;101918.88;5063085;28;20087;-63
2022/10/29 08:38:40;;;;;;;2.25;1.40;;;;;;;19.50;58.52;101918.59;5063813;28;20104;-62
2022/10/29 08:41:15;;;;;;;1.90;1.60;;;;;;;19.53;58.33;101915.56;5063403;28;20025;-63
2022/10/29 08:44:02;;;;;;;2.20;1.63;;;;;;;19.56;58.17;101911.75;5062362;28;20017;-63
2022/10/29 08:46:49;;;;;;;2.05;1.45;;;;;;;19.56;58.48;101901.81;5063453;28;20058;-63
2022/10/29 08:49:20;;;;;;;2.47;1.52;;;;;;;19.57;58.39;101903.50;5061669;28;20036;-62
2022/10/29 08:51:53;;;;;;;2.10;1.58;;;;;;;19.58;58.38;101910.63;5062188;28;20100;-62
2022/10/29 08:54:18;;;;;;;2.55;1.90;;;;;;;19.61;58.24;101899.53;5062071;28;20054;-63
2022/10/29 08:56:48;;;;;;;1.60;1.40;;;;;;;19.66;57.99;101893.69;5062235;28;20063;-63
2022/10/29 08:59:19;;;;;;;1.70;1.40;;;;;;;19.68;58.25;101895.25;5061491;28;20059;-63
2022/10/29 09:01:44;;;;;;;3.22;1.70;;;;;;;19.71;58.13;101892.25;5061611;28;20078;-63
2022/10/29 09:04:19;;;;;;;3.30;1.75;;;;;;;19.72;57.85;101893.09;5063233;28;20064;-63
2022/10/29 09:07:24;;;;;;;2.85;2.38;;;;;;;19.74;57.90;101893.78;5063046;28;20116;-63
2022/10/29 09:10:09;;;;;;;2.30;1.63;;;;;;;19.77;57.81;101898.91;5061756;28;20021;-63
2022/10/29 09:12:46;;;;;;;2.75;1.63;;;;;;;19.79;57.78;101904.97;5063056;28;20029;-63
2022/10/29 09:15:26;;;;;;;4.28;1.83;;;;;;;19.82;57.36;101890.34;5043132;28;20025;-63
2022/10/29 09:18:13;;;;;;;3.45;1.90;;;;;;;19.86;57.70;101876.41;5043342;28;20010;-63
2022/10/29 09:20:53;;;;;;;3.72;1.75;;;;;;;19.90;57.08;101860.75;5042734;28;20191;-63
2022/10/29 09:23:53;;;;;;;2.85;1.83;;;;;;;19.92;57.53;101865.00;5043307;28;20032;-63
2022/10/29 09:26:30;;;;;;;1.83;1.30;;;;;;;19.96;57.25;101868.22;5043017;28;20068;-63
2022/10/29 09:29:04;;;;;;;2.78;1.60;;;;;;;19.98;56.92;101875.19;5042719;28;20108;-63
2022/10/29 09:31:49;;;;;;;2.75;1.52;;;;;;;19.98;56.97;101871.63;5045525;28;20025;-63
2022/10/29 09:34:28;;;;;;;2.58;1.52;;;;;;;19.98;56.91;101880.59;5061354;28;20039;-62
2022/10/29 09:36:55;;;;;;;2.17;1.65;;;;;;;19.98;56.87;101872.47;5062923;28;20021;-62
2022/10/29 09:39:36;;;;;;;2.85;1.40;;;;;;;19.98;57.04;101868.94;5061547;28;20082;-62
2022/10/29 09:42:08;;;;;;;3.05;1.90;;;;;;;19.97;57.27;101873.50;5061915;28;20027;-62
2022/10/29 09:44:50;;;;;;;2.45;1.48;;;;;;;19.98;57.25;101883.28;5061580;28;20036;-62
2022/10/29 09:47:20;;;;;;;2.70;1.92;;;;;;;19.98;56.94;101883.28;5061645;28;20042;-62
2022/10/29 09:50:05;;;;;;;2.17;1.60;;;;;;;19.88;57.13;101870.84;5062361;28;20048;-62
2022/10/29 09:52:33;;;;;;;2.80;1.60;;;;;;;19.83;57.18;101856.94;5063217;28;20029;-61
2022/10/29 09:54:59;;;;;;;2.15;1.65;;;;;;;19.96;57.00;101865.53;5062541;28;20401;-61
2022/10/29 09:57:28;;;;;;;2.45;1.60;;;;;;;19.91;57.42;101857.88;5062471;28;20031;-63
2022/10/29 10:00:03;;;;;;;2.15;1.35;;;;;;;19.97;57.10;101862.69;5062466;28;20025;-62
2022/10/29 10:02:37;;;;;;;3.50;1.73;;;;;;;19.99;57.15;101865.22;5062877;28;20045;-62
2022/10/29 10:05:06;;;;;;;2.20;1.70;;;;;;;20.00;57.19;101861.53;5062136;28;20111;-61
2022/10/29 10:07:31;;;;;;;2.75;1.70;;;;;;;19.93;56.97;101850.50;5062818;28;20033;-62
2022/10/29 10:10:02;;;;;;;3.20;1.80;;;;;;;19.95;57.06;101847.66;5062442;28;20413;-62
2022/10/29 10:12:36;;;;;;;1.90;1.50;;;;;;;19.98;57.03;101841.94;5064783;28;20029;-62
2022/10/29 10:15:27;;;;;;;2.65;1.63;;;;;;;19.97;56.98;101845.66;5046552;28;20029;-61
2022/10/29 10:18:13;;;;;;;2.55;1.85;;;;;;;19.97;57.11;101845.66;5049336;28;20044;-59
2022/10/29 10:20:47;;;;;;;2.40;1.67;;;;;;;19.96;57.27;101833.13;5062862;28;20039;-59
2022/10/29 10:23:21;;;;;;;2.42;1.60;;;;;;;19.94;57.69;101830.59;5064692;28;20025;-59
2022/10/29 10:25:46;;;;;;;4.40;2.05;;;;;;;19.94;57.56;101825.19;5057967;28;20021;-59
2022/10/29 10:28:22;;;;;;;2.28;1.30;;;;;;;19.93;57.69;101818.13;5063327;28;20104;-59
2022/10/29 10:31:02;;;;;;;2.58;1.65;;;;;;;19.93;57.82;101809.19;5051694;28;20084;-59
2022/10/29 10:33:28;;;;;;;3.50;1.90;;;;;;;19.91;57.70;101811.16;5065141;28;20036;-59
2022/10/29 10:35:54;;;;;;;5.55;1.80;;;;;;;19.93;57.86;101810.03;5047916;28;20038;-59
2022/10/29 10:38:20;;;;;;;1.90;1.67;;;;;;;19.90;57.59;101787.88;5061842;28;20536;-58
2022/10/29 10:40:56;;;;;;;2.45;1.58;;;;;;;19.93;57.96;101779.47;5052220;28;20036;-60
2022/10/29 10:43:23;;;;;;;4.72;1.83;;;;;;;19.93;57.86;101785.72;5055218;28;20478;-58
2022/10/29 10:45:55;;;;;;;3.53;1.90;;;;;;;19.94;57.80;101792.81;5049278;28;20029;-59
2022/10/29 10:48:21;;;;;;;3.28;1.85;;;;;;;19.93;57.61;101783.03;5061693;28;20029;-59
2022/10/29 10:50:47;;;;;;;3.60;2.28;;;;;;;19.94;57.40;101775.78;5051122;28;20025;-59
2022/10/29 10:53:18;;;;;;;2.47;1.80;;;;;;;19.91;58.01;101770.69;5055492;28;20076;-60
2022/10/29 10:55:50;;;;;;;2.63;2.03;;;;;;;19.94;57.93;101776.63;5057796;28;20074;-59
2022/10/29 10:58:18;;;;;;;2.00;1.70;;;;;;;19.95;57.80;101796.34;5048224;28;20021;-59
2022/10/29 11:00:57;;;;;;;2.35;1.55;;;;;;;19.91;57.75;101795.81;5058707;28;20052;-59
2022/10/29 11:03:36;;;;;;;4.05;2.05;;;;;;;19.95;57.64;101797.19;5063105;28;20040;-59
2022/10/29 11:06:08;;;;;;;2.70;1.80;;;;;;;19.97;57.92;101800.63;5060422;28;20111;-60
2022/10/29 11:08:39;;;;;;;2.80;1.65;;;;;;;19.98;58.32;101801.47;5060129;28;20048;-59
2022/10/29 11:11:13;;;;;;;3.03;1.90;;;;;;;19.95;57.83;101796.34;5062837;28;20033;-60
2022/10/29 11:13:40;;;;;;;2.22;1.63;;;;;;;19.99;58.18;101805.84;5054886;28;20022;-67
2022/10/29 11:16:37;;;;;;;4.18;1.80;;;;;;;19.94;58.38;101783.88;5043706;28;20025;-65
2022/10/29 11:19:19;;;;;;;3.08;1.90;;;;;;;19.98;58.37;101788.81;5057290;28;20048;-67
2022/10/29 11:21:57;;;;;;;12.48;7.88;;;;;;;19.97;58.54;101786.28;5062727;28;20017;-67
2022/10/29 11:24:29;;;;;;;18.35;10.05;;;;;;;20.04;58.89;101797.28;5079805;28;20028;-65
2022/10/29 11:27:13;;;;;;;13.52;9.90;;;;;;;20.06;58.99;101798.84;5063572;28;20024;-67
2022/10/29 11:29:44;;;;;;;14.48;9.50;;;;;;;20.10;58.74;101796.69;5080083;28;20081;-67
2022/10/29 11:32:34;;;;;;;14.65;9.40;;;;;;;20.14;58.88;101793.50;5079990;28;20025;-67
2022/10/29 11:35:08;;;;;;;13.20;8.13;;;;;;;20.18;58.88;101781.41;5064720;28;20036;-67